Time;durP1;ratioP1;P1;durP2;ratioP2;P2;SDS_P1;SDS_P2;PMS_P1;PMS_P2;Temp;Humidity;BMP_temperature;BMP_pressure;BME280_temperature;BME280_humidity;BME280_pressure;Samples;Min_cycle;Max_cycle;Signal;HPM_P1;HPM_P2
2023/09/10 00:01:05;;;;;;;7.57;5.35;;;16.80;99.90;;;;;;4969438;28;20494;-61
2023/09/10 00:03:34;;;;;;;9.27;5.47;;;16.90;99.90;;;;;;4970099;28;20039;-61
2023/09/10 00:06:01;;;;;;;8.07;4.78;;;16.90;99.90;;;;;;4970870;28;20043;-61
2023/09/10 00:08:28;;;;;;;7.43;5.28;;;16.90;99.90;;;;;;5037506;28;20047;-61
2023/09/10 00:10:55;;;;;;;9.48;5.78;;;16.80;99.90;;;;;;5037697;28;20051;-61
2023/09/10 00:13:21;;;;;;;7.93;5.60;;;16.90;99.90;;;;;;5037911;28;20043;-61
2023/09/10 00:15:47;;;;;;;10.38;5.82;;;16.90;99.90;;;;;;4970383;28;20888;-61
2023/09/10 00:18:14;;;;;;;8.93;5.32;;;16.90;99.90;;;;;;4970542;28;20100;-61
2023/09/10 00:20:40;;;;;;;11.73;6.40;;;16.90;99.90;;;;;;4970646;28;20457;-61
2023/09/10 00:23:06;;;;;;;16.27;7.72;;;16.90;99.90;;;;;;5053805;28;20056;-61
2023/09/10 00:25:32;;;;;;;17.30;8.07;;;16.80;99.90;;;;;;5072315;28;20040;-61
2023/09/10 00:27:58;;;;;;;13.65;8.02;;;16.80;99.90;;;;;;5054318;28;20048;-61
2023/09/10 00:30:26;;;;;;;14.65;7.72;;;16.90;99.90;;;;;;5025708;28;20145;-61
2023/09/10 00:32:52;;;;;;;10.60;7.03;;;16.80;99.90;;;;;;5037125;28;20054;-61
2023/09/10 00:35:17;;;;;;;12.00;7.18;;;16.90;99.90;;;;;;4970371;28;20041;-61
2023/09/10 00:37:43;;;;;;;17.33;8.13;;;16.90;99.90;;;;;;5036421;28;20062;-61
2023/09/10 00:40:09;;;;;;;15.82;9.13;;;16.90;99.90;;;;;;4970307;28;20118;-61
2023/09/10 00:42:37;;;;;;;15.75;7.25;;;16.90;99.90;;;;;;4970258;28;20047;-61
2023/09/10 00:45:06;;;;;;;15.32;7.18;;;16.90;99.90;;;;;;4961807;28;20101;-61
2023/09/10 00:47:32;;;;;;;16.88;7.38;;;16.90;99.90;;;;;;5052852;28;20616;-61
2023/09/10 00:49:58;;;;;;;13.15;7.93;;;16.80;99.90;;;;;;5053864;28;20102;-61
2023/09/10 00:52:26;;;;;;;17.02;8.35;;;16.70;99.90;;;;;;5053238;28;20495;-61
2023/09/10 00:54:52;;;;;;;13.05;8.15;;;16.60;99.90;;;;;;5056121;28;20054;-61
2023/09/10 00:57:18;;;;;;;13.88;7.15;;;16.60;99.90;;;;;;5056395;28;20513;-61
2023/09/10 00:59:45;;;;;;;12.63;7.63;;;16.50;99.90;;;;;;4979394;28;20039;-61
2023/09/10 01:02:14;;;;;;;14.93;8.05;;;16.50;99.90;;;;;;5020365;28;20043;-61
2023/09/10 01:04:40;;;;;;;13.60;8.37;;;16.60;99.90;;;;;;5036133;28;20490;-61
2023/09/10 01:07:06;;;;;;;13.13;8.30;;;16.60;99.90;;;;;;5036168;28;20282;-61
2023/09/10 01:09:32;;;;;;;14.57;8.48;;;16.70;99.90;;;;;;5036671;28;20050;-61
2023/09/10 01:12:16;;;;;;;17.55;8.82;;;16.70;99.90;;;;;;5036135;28;20046;-61
2023/09/10 01:14:53;;;;;;;14.10;7.75;;;16.70;99.90;;;;;;4969977;28;20427;-61
2023/09/10 01:17:32;;;;;;;10.05;6.00;;;16.70;99.90;;;;;;5036295;28;20055;-61
2023/09/10 01:20:28;;;;;;;10.77;5.57;;;16.70;99.90;;;;;;4969379;28;20391;-61
2023/09/10 01:23:07;;;;;;;13.52;6.70;;;16.70;99.90;;;;;;4977633;28;20046;-61
2023/09/10 01:25:34;;;;;;;12.60;7.07;;;16.70;99.90;;;;;;4968221;28;20046;-61
2023/09/10 01:28:03;;;;;;;9.18;6.20;;;16.70;99.90;;;;;;5035332;28;20069;-61
2023/09/10 01:30:30;;;;;;;8.65;5.75;;;16.70;99.90;;;;;;5047958;28;20053;-61
2023/09/10 01:33:16;;;;;;;11.65;6.00;;;16.70;99.90;;;;;;5048204;28;20516;-61
2023/09/10 01:35:45;;;;;;;9.63;5.53;;;16.60;99.90;;;;;;5031663;28;20049;-61
2023/09/10 01:38:28;;;;;;;9.65;6.32;;;16.60;99.90;;;;;;5048822;28;20060;-61
2023/09/10 01:41:04;;;;;;;11.52;6.60;;;16.50;99.90;;;;;;5043059;28;20048;-61
2023/09/10 01:43:31;;;;;;;11.57;6.95;;;16.40;99.90;;;;;;5028819;28;20053;-61
2023/09/10 01:45:57;;;;;;;9.02;4.82;;;16.30;99.90;;;;;;5035890;28;20025;-61
2023/09/10 01:48:26;;;;;;;7.50;4.45;;;16.30;99.90;;;;;;5048812;28;20369;-61
2023/09/10 01:50:53;;;;;;;5.05;3.60;;;16.30;99.90;;;;;;5065294;28;20048;-61
2023/09/10 01:53:19;;;;;;;9.30;5.13;;;16.30;99.90;;;;;;5069183;28;20516;-61
2023/09/10 01:55:45;;;;;;;6.75;4.25;;;16.30;99.90;;;;;;5068126;28;20044;-61
2023/09/10 01:58:14;;;;;;;7.80;5.18;;;16.30;99.90;;;;;;5050778;28;20049;-61
2023/09/10 02:00:41;;;;;;;;;;;16.20;99.90;;;;;;5047683;28;20049;-61
2023/09/10 02:03:06;;;;;;;9.07;5.05;;;16.20;99.90;;;;;;5048295;28;20005;-61
2023/09/10 02:05:32;;;;;;;8.82;5.88;;;16.20;99.90;;;;;;5048253;28;20060;-61
2023/09/10 02:07:58;;;;;;;10.45;4.60;;;16.20;99.90;;;;;;5047850;28;20045;-60
2023/09/10 02:10:24;;;;;;;14.48;6.18;;;16.10;99.90;;;;;;5048349;28;20041;-60
2023/09/10 02:12:50;;;;;;;15.38;6.35;;;16.10;99.90;;;;;;5048192;28;20055;-61
2023/09/10 02:15:17;;;;;;;14.27;5.75;;;16.00;99.90;;;;;;5047512;28;20091;-61
2023/09/10 02:17:43;;;;;;;14.80;6.95;;;15.90;99.90;;;;;;5048353;28;20040;-60
2023/09/10 02:20:09;;;;;;;10.65;5.80;;;15.90;99.90;;;;;;5047174;28;20440;-61
2023/09/10 02:22:37;;;;;;;6.82;4.10;;;15.90;99.90;;;;;;5047520;28;20040;-60
2023/09/10 02:25:03;;;;;;;9.55;5.82;;;15.80;99.90;;;;;;5048174;28;20044;-61
2023/09/10 02:27:31;;;;;;;14.20;4.82;;;15.80;99.90;;;;;;5048006;28;20036;-61
2023/09/10 02:29:57;;;;;;;12.63;4.90;;;15.80;99.90;;;;;;5035647;28;20064;-60
2023/09/10 02:32:23;;;;;;;11.23;5.28;;;15.80;99.90;;;;;;5069129;28;20051;-60
2023/09/10 02:34:51;;;;;;;8.98;5.07;;;15.80;99.90;;;;;;5059858;28;20044;-60
2023/09/10 02:37:17;;;;;;;10.07;6.30;;;15.80;99.90;;;;;;5043961;28;20053;-61
2023/09/10 02:39:43;;;;;;;9.15;5.18;;;15.80;99.90;;;;;;5027943;28;20133;-60
2023/09/10 02:42:09;;;;;;;9.77;5.55;;;15.90;99.90;;;;;;5028266;28;20440;-61
2023/09/10 02:44:35;;;;;;;9.32;5.18;;;15.90;99.90;;;;;;5028635;28;20034;-60
2023/09/10 02:47:01;;;;;;;11.65;5.75;;;15.90;99.90;;;;;;5043588;28;20136;-60
2023/09/10 02:49:27;;;;;;;11.55;6.03;;;15.90;99.90;;;;;;5030658;28;20053;-60
2023/09/10 02:51:54;;;;;;;12.55;7.18;;;15.90;99.90;;;;;;5048711;28;20041;-60
2023/09/10 02:54:19;;;;;;;7.32;4.60;;;15.90;99.90;;;;;;5047779;28;20044;-60
2023/09/10 02:56:45;;;;;;;12.75;7.05;;;15.90;99.90;;;;;;5046925;28;20047;-60
2023/09/10 02:59:19;;;;;;;10.35;5.70;;;16.00;99.90;;;;;;5048235;28;20118;-61
2023/09/10 03:01:45;;;;;;;8.65;5.30;;;16.00;99.90;;;;;;5048639;28;20108;-61
2023/09/10 03:04:11;;;;;;;14.90;7.75;;;16.00;99.90;;;;;;5046800;28;20036;-60
2023/09/10 03:06:37;;;;;;;16.30;8.15;;;15.90;99.90;;;;;;5047829;28;20033;-61
2023/09/10 03:09:03;;;;;;;13.57;7.55;;;15.80;99.90;;;;;;5047666;28;20386;-61
2023/09/10 03:11:31;;;;;;;21.50;8.07;;;15.80;99.90;;;;;;5046751;28;20402;-60
2023/09/10 03:13:56;;;;;;;22.77;6.13;;;15.70;99.90;;;;;;5047477;28;20052;-60
2023/09/10 03:16:24;;;;;;;18.67;7.47;;;15.70;99.90;;;;;;5047478;28;20124;-60
2023/09/10 03:18:50;;;;;;;12.50;6.97;;;15.70;99.90;;;;;;5046657;28;20051;-61
2023/09/10 03:21:16;;;;;;;16.00;9.07;;;15.60;99.90;;;;;;5048695;28;20037;-60
2023/09/10 03:23:41;;;;;;;18.20;8.63;;;15.60;99.90;;;;;;5047225;28;20091;-61
2023/09/10 03:26:11;;;;;;;14.75;7.50;;;15.70;99.90;;;;;;5051112;28;20040;-61
2023/09/10 03:28:37;;;;;;;17.13;8.18;;;15.70;99.90;;;;;;5067323;28;20052;-61
2023/09/10 03:31:03;;;;;;;17.98;10.13;;;15.80;99.90;;;;;;5055580;28;20053;-60
2023/09/10 03:33:29;;;;;;;17.33;9.63;;;15.80;99.90;;;;;;5046322;28;20033;-61
2023/09/10 03:35:54;;;;;;;16.83;8.63;;;15.90;99.90;;;;;;5031610;28;20079;-60
2023/09/10 03:38:20;;;;;;;19.80;9.35;;;15.90;99.90;;;;;;5031060;28;20044;-61
2023/09/10 03:40:46;;;;;;;17.40;9.65;;;16.00;99.90;;;;;;5031109;28;20493;-60
2023/09/10 03:43:12;;;;;;;15.40;7.93;;;16.00;99.90;;;;;;5045191;28;20130;-60
2023/09/10 03:45:37;;;;;;;17.25;8.68;;;16.00;99.90;;;;;;5051474;28;20029;-61
2023/09/10 03:48:03;;;;;;;17.27;9.32;;;16.00;99.90;;;;;;5050937;28;20072;-61
2023/09/10 03:50:29;;;;;;;15.30;8.80;;;16.00;99.90;;;;;;5050822;28;20040;-60
2023/09/10 03:52:55;;;;;;;15.65;8.20;;;16.00;99.90;;;;;;5051559;28;20037;-60
2023/09/10 03:55:21;;;;;;;18.25;9.48;;;16.00;99.90;;;;;;5051011;28;20056;-61
2023/09/10 03:57:46;;;;;;;16.55;8.57;;;16.00;99.90;;;;;;5051965;28;20485;-60
2023/09/10 04:00:12;;;;;;;15.63;7.47;;;16.00;99.90;;;;;;5049525;28;20151;-60
2023/09/10 04:02:38;;;;;;;17.38;7.65;;;16.00;99.90;;;;;;5050695;28;20036;-60
2023/09/10 04:05:05;;;;;;;19.02;7.00;;;15.80;99.90;;;;;;5051990;28;20055;-61
2023/09/10 04:07:31;;;;;;;24.73;6.38;;;15.80;99.90;;;;;;5050251;28;20110;-60
2023/09/10 04:09:57;;;;;;;11.82;6.85;;;15.60;99.90;;;;;;5051905;28;20069;-60
2023/09/10 04:12:23;;;;;;;13.75;8.20;;;15.60;99.90;;;;;;5050887;28;20052;-61
2023/09/10 04:14:48;;;;;;;13.27;7.45;;;15.60;99.90;;;;;;5051088;28;20045;-61
2023/09/10 04:17:18;;;;;;;15.15;8.02;;;15.60;99.90;;;;;;5050574;28;20041;-60
2023/09/10 04:19:44;;;;;;;15.40;8.45;;;15.60;99.90;;;;;;5050114;28;20137;-60
2023/09/10 04:22:10;;;;;;;20.08;9.00;;;15.60;99.90;;;;;;5053694;28;20442;-60
2023/09/10 04:24:36;;;;;;;14.00;8.23;;;15.70;99.90;;;;;;5071795;28;20108;-60
2023/09/10 04:27:02;;;;;;;13.75;7.40;;;15.60;99.90;;;;;;5062940;28;20568;-61
2023/09/10 04:29:29;;;;;;;14.43;7.45;;;15.70;99.90;;;;;;5043815;28;20041;-62
2023/09/10 04:31:56;;;;;;;16.73;8.65;;;15.70;99.90;;;;;;5033224;28;20065;-60
2023/09/10 04:34:22;;;;;;;13.85;7.47;;;15.70;99.90;;;;;;5016166;28;20083;-60
2023/09/10 04:36:48;;;;;;;14.15;7.25;;;15.70;99.90;;;;;;4950090;29;20094;-61
2023/09/10 04:39:14;;;;;;;12.55;6.15;;;15.70;99.90;;;;;;5016700;28;20372;-60
2023/09/10 04:41:40;;;;;;;12.57;7.53;;;15.70;99.90;;;;;;4958048;28;20488;-61
2023/09/10 04:44:06;;;;;;;12.18;7.60;;;15.70;99.90;;;;;;5071666;28;20070;-61
2023/09/10 04:46:31;;;;;;;14.02;7.78;;;15.70;99.90;;;;;;5036109;28;20047;-61
2023/09/10 04:48:58;;;;;;;14.60;7.30;;;15.70;99.90;;;;;;5035786;28;20035;-61
2023/09/10 04:51:23;;;;;;;13.38;7.15;;;15.70;99.90;;;;;;5036080;28;20045;-60
2023/09/10 04:53:49;;;;;;;14.65;7.03;;;15.70;99.90;;;;;;5036284;28;20042;-60
2023/09/10 04:56:15;;;;;;;13.60;6.72;;;15.70;99.90;;;;;;5035350;28;20042;-61
2023/09/10 04:58:41;;;;;;;11.88;6.55;;;15.70;99.90;;;;;;5035832;28;20046;-61
2023/09/10 05:01:07;;;;;;;11.70;6.22;;;15.60;99.90;;;;;;4967618;28;20053;-60
2023/09/10 05:03:33;;;;;;;14.27;7.05;;;15.60;99.90;;;;;;4973310;28;20038;-61
2023/09/10 05:06:00;;;;;;;12.75;7.07;;;15.70;99.90;;;;;;5035892;28;20043;-60
2023/09/10 05:08:27;;;;;;;11.50;6.70;;;15.60;99.90;;;;;;5035887;28;20046;-61
2023/09/10 05:10:54;;;;;;;12.73;6.20;;;15.60;99.90;;;;;;4968408;28;20050;-61
2023/09/10 05:13:19;;;;;;;15.32;8.10;;;15.60;99.90;;;;;;4969143;28;20203;-60
2023/09/10 05:15:47;;;;;;;13.38;7.07;;;15.60;99.90;;;;;;5038612;28;20062;-60
2023/09/10 05:18:12;;;;;;;14.02;6.72;;;15.60;99.90;;;;;;5047694;28;20052;-61
2023/09/10 05:20:38;;;;;;;9.30;5.40;;;15.60;99.90;;;;;;4988207;28;20409;-60
2023/09/10 05:23:04;;;;;;;11.75;6.00;;;15.60;99.90;;;;;;5050201;28;20043;-60
2023/09/10 05:25:30;;;;;;;12.10;6.13;;;15.60;99.90;;;;;;5033622;28;20122;-61
2023/09/10 05:27:56;;;;;;;9.32;5.57;;;15.60;99.90;;;;;;5015971;28;20502;-61
2023/09/10 05:30:22;;;;;;;9.05;5.60;;;15.60;99.90;;;;;;4948962;28;20051;-61
2023/09/10 05:32:48;;;;;;;7.95;5.03;;;15.60;99.90;;;;;;5032214;28;20054;-61
2023/09/10 05:35:14;;;;;;;10.65;5.38;;;15.60;99.90;;;;;;5015831;28;20046;-60
2023/09/10 05:37:39;;;;;;;7.57;4.95;;;15.60;99.90;;;;;;4948790;29;20483;-61
2023/09/10 05:40:06;;;;;;;9.80;5.53;;;15.60;99.90;;;;;;4998820;28;20036;-59
2023/09/10 05:42:31;;;;;;;9.48;5.15;;;15.70;99.90;;;;;;5024178;28;20050;-61
2023/09/10 05:44:57;;;;;;;9.57;5.03;;;15.70;99.90;;;;;;4967770;28;20415;-61
2023/09/10 05:47:23;;;;;;;9.55;4.97;;;15.70;99.90;;;;;;5034776;28;20043;-61
2023/09/10 05:49:52;;;;;;;11.10;5.78;;;15.70;99.90;;;;;;4968612;28;20046;-61
2023/09/10 05:52:17;;;;;;;9.73;5.90;;;15.70;99.90;;;;;;4979966;28;20069;-61
2023/09/10 05:54:43;;;;;;;12.63;7.18;;;15.80;99.90;;;;;;5051600;28;20529;-61
2023/09/10 05:57:09;;;;;;;9.60;5.47;;;15.80;99.90;;;;;;5069858;28;20032;-61
2023/09/10 05:59:35;;;;;;;12.20;6.95;;;15.80;99.90;;;;;;5026293;28;20490;-61
2023/09/10 06:02:00;;;;;;;15.35;7.38;;;15.90;99.90;;;;;;4951000;28;20534;-61
2023/09/10 06:04:27;;;;;;;13.40;6.90;;;16.00;99.90;;;;;;4956267;28;20081;-61
2023/09/10 06:06:53;;;;;;;13.05;6.68;;;16.10;99.90;;;;;;5014127;28;20499;-61
2023/09/10 06:09:19;;;;;;;14.65;7.72;;;16.20;99.90;;;;;;5014988;28;20051;-61
2023/09/10 06:11:44;;;;;;;13.73;7.55;;;16.30;99.90;;;;;;5014982;28;20054;-61
2023/09/10 06:14:10;;;;;;;13.90;7.50;;;16.40;99.90;;;;;;4952161;28;20558;-61
2023/09/10 06:16:36;;;;;;;15.25;9.75;;;16.50;99.90;;;;;;5052971;28;20046;-61
2023/09/10 06:19:02;;;;;;;20.45;9.57;;;16.70;99.90;;;;;;4984087;28;20057;-61
2023/09/10 06:21:29;;;;;;;19.35;11.43;;;16.90;99.90;;;;;;5017436;28;20055;-61
2023/09/10 06:23:55;;;;;;;19.05;10.52;;;17.10;99.90;;;;;;5034283;28;20097;-61
2023/09/10 06:26:21;;;;;;;22.48;10.85;;;17.40;99.90;;;;;;5033896;28;20050;-61
2023/09/10 06:28:47;;;;;;;17.48;10.18;;;17.60;99.90;;;;;;5034152;28;20042;-61
2023/09/10 06:31:12;;;;;;;19.65;10.10;;;17.80;99.90;;;;;;5033949;28;20047;-61
2023/09/10 06:33:38;;;;;;;21.13;10.80;;;18.10;99.90;;;;;;5033366;28;20096;-61
2023/09/10 06:36:04;;;;;;;20.10;10.93;;;18.30;99.90;;;;;;5017784;28;20070;-61
2023/09/10 06:38:30;;;;;;;18.27;10.38;;;18.50;99.90;;;;;;5000022;28;20032;-61
2023/09/10 06:40:56;;;;;;;18.55;10.68;;;18.70;99.90;;;;;;5050026;28;20047;-61
2023/09/10 06:43:22;;;;;;;16.35;9.75;;;18.80;99.90;;;;;;5069170;28;20134;-61
2023/09/10 06:45:50;;;;;;;19.58;10.45;;;18.90;99.90;;;;;;5034207;28;20039;-61
2023/09/10 06:48:16;;;;;;;19.63;10.93;;;19.00;99.90;;;;;;5033513;28;20045;-61
2023/09/10 06:50:42;;;;;;;23.48;11.88;;;19.20;99.90;;;;;;4967373;28;20035;-61
2023/09/10 06:53:08;;;;;;;16.80;9.93;;;19.30;99.90;;;;;;5033520;28;20444;-61
2023/09/10 06:55:33;;;;;;;21.85;11.77;;;19.40;99.90;;;;;;4966764;28;20045;-61
2023/09/10 06:57:59;;;;;;;18.50;10.50;;;19.40;99.90;;;;;;4967353;28;20046;-61
2023/09/10 07:00:25;;;;;;;24.45;12.05;;;19.40;99.90;;;;;;4957545;28;20114;-61
2023/09/10 07:02:51;;;;;;;23.65;10.90;;;19.50;99.90;;;;;;5013697;28;20051;-61
2023/09/10 07:05:17;;;;;;;22.23;11.25;;;19.50;99.90;;;;;;4947408;29;20070;-61
2023/09/10 07:07:43;;;;;;;22.42;10.98;;;19.60;99.90;;;;;;5030837;28;20499;-61
2023/09/10 07:10:10;;;;;;;21.40;11.35;;;19.70;99.90;;;;;;4947417;29;20043;-61
2023/09/10 07:12:36;;;;;;;24.80;12.15;;;19.70;99.90;;;;;;5047164;28;20049;-61
2023/09/10 07:15:02;;;;;;;18.88;10.45;;;19.80;99.90;;;;;;5045803;28;20055;-60
2023/09/10 07:17:28;;;;;;;22.63;11.63;;;19.90;99.90;;;;;;5033430;28;20050;-61
2023/09/10 07:19:53;;;;;;;23.67;11.90;;;20.00;99.90;;;;;;5033843;28;20039;-61
2023/09/10 07:22:19;;;;;;;21.52;11.73;;;20.00;99.90;;;;;;5033578;28;20054;-61
2023/09/10 07:24:45;;;;;;;22.02;11.68;;;20.10;99.90;;;;;;4966859;28;20041;-61
2023/09/10 07:27:11;;;;;;;21.98;11.30;;;20.20;99.90;;;;;;4967296;28;20423;-61
2023/09/10 07:29:36;;;;;;;19.02;10.68;;;20.30;99.90;;;;;;4966404;28;20049;-61
2023/09/10 07:32:02;;;;;;;22.33;11.68;;;20.40;99.90;;;;;;5034091;28;20575;-61
2023/09/10 07:34:28;;;;;;;24.00;12.15;;;20.50;99.90;;;;;;5034034;28;20057;-61
2023/09/10 07:36:54;;;;;;;23.40;12.40;;;20.60;99.90;;;;;;5033153;28;20414;-61
2023/09/10 07:39:20;;;;;;;23.75;12.20;;;20.70;99.90;;;;;;5034684;28;20067;-61
2023/09/10 07:41:46;;;;;;;22.50;12.27;;;20.90;99.90;;;;;;5050495;28;20083;-60
2023/09/10 07:44:11;;;;;;;21.52;11.43;;;21.10;99.90;;;;;;5067727;28;20052;-61
2023/09/10 07:46:37;;;;;;;19.63;11.88;;;21.20;99.90;;;;;;5033707;28;20051;-61
2023/09/10 07:49:05;;;;;;;26.40;12.40;;;21.30;99.90;;;;;;4966769;28;20035;-61
2023/09/10 07:51:30;;;;;;;21.77;12.35;;;21.50;99.90;;;;;;5033187;28;20570;-61
2023/09/10 07:53:56;;;;;;;23.02;11.57;;;21.60;99.90;;;;;;4966999;28;20403;-61
2023/09/10 07:56:22;;;;;;;22.33;12.20;;;21.80;99.90;;;;;;5026409;28;20039;-61
2023/09/10 07:58:48;;;;;;;21.55;10.98;;;21.90;99.90;;;;;;5014932;28;20039;-61
2023/09/10 08:01:14;;;;;;;20.90;10.93;;;22.10;99.90;;;;;;4965449;28;20047;-61
2023/09/10 08:03:42;;;;;;;23.65;11.55;;;22.20;99.90;;;;;;4965754;28;20047;-62
2023/09/10 08:06:08;;;;;;;20.92;11.95;;;22.50;99.90;;;;;;4966499;28;20038;-61
2023/09/10 08:08:34;;;;;;;21.63;11.02;;;22.70;99.90;;;;;;5007951;28;20035;-61
2023/09/10 08:10:59;;;;;;;23.42;12.68;;;23.00;99.90;;;;;;5064519;28;20081;-61
2023/09/10 08:13:25;;;;;;;18.08;10.60;;;23.40;99.90;;;;;;4972651;28;20064;-61
2023/09/10 08:15:51;;;;;;;16.58;10.18;;;23.80;99.90;;;;;;4966508;28;20050;-61
2023/09/10 08:18:17;;;;;;;17.95;10.43;;;24.20;99.90;;;;;;5035367;28;20050;-62
2023/09/10 08:20:43;;;;;;;17.70;10.35;;;24.70;99.90;;;;;;4969644;28;20035;-61
2023/09/10 08:23:09;;;;;;;15.30;8.32;;;25.20;99.90;;;;;;4969769;28;20118;-62
2023/09/10 08:25:36;;;;;;;18.10;9.95;;;25.60;99.90;;;;;;5019185;28;20043;-62
2023/09/10 08:28:02;;;;;;;15.93;8.65;;;26.00;99.90;;;;;;5036348;28;20050;-62
2023/09/10 08:30:28;;;;;;;14.38;8.57;;;26.40;99.90;;;;;;5049946;28;20057;-62
2023/09/10 08:32:54;;;;;;;14.55;8.18;;;26.70;99.90;;;;;;5032913;28;20055;-61
2023/09/10 08:35:22;;;;;;;13.30;8.05;;;26.90;99.90;;;;;;5051579;28;20063;-62
2023/09/10 08:37:47;;;;;;;14.02;7.82;;;27.20;99.90;;;;;;5051195;28;20044;-62
2023/09/10 08:40:15;;;;;;;15.38;8.27;;;27.40;99.90;;;;;;5050493;28;20428;-62
2023/09/10 08:43:13;;;;;;;15.05;8.60;;;27.50;99.90;;;;;;5050186;28;20127;-62
2023/09/10 08:45:38;;;;;;;13.60;7.80;;;27.60;99.90;;;;;;5052441;28;20070;-61
2023/09/10 08:48:05;;;;;;;13.82;7.68;;;27.80;99.90;;;;;;5070336;28;20350;-62
2023/09/10 08:50:31;;;;;;;11.80;8.07;;;28.10;99.90;;;;;;5070901;28;20048;-62
2023/09/10 08:52:58;;;;;;;11.13;7.10;;;28.40;99.90;;;;;;5057004;28;20072;-62
2023/09/10 08:55:25;;;;;;;11.02;6.82;;;28.60;99.90;;;;;;5049333;28;20040;-62
2023/09/10 08:57:56;;;;;;;12.10;6.50;;;28.80;99.90;;;;;;5049608;28;20497;-62
2023/09/10 09:00:22;;;;;;;12.15;6.90;;;28.90;99.90;;;;;;5048819;28;20089;-62
2023/09/10 09:02:48;;;;;;;14.32;7.65;;;29.10;99.90;;;;;;5049777;28;20087;-63
2023/09/10 09:05:14;;;;;;;11.30;7.00;;;29.20;99.90;;;;;;5049532;28;20045;-63
2023/09/10 09:07:45;;;;;;;13.40;6.45;;;29.20;99.90;;;;;;5032630;28;20040;-62
2023/09/10 09:10:17;;;;;;;13.13;6.90;;;29.20;99.90;;;;;;5050807;28;20048;-62
2023/09/10 09:12:44;;;;;;;10.48;6.47;;;29.30;99.90;;;;;;5049227;28;20037;-62
2023/09/10 09:15:11;;;;;;;8.55;6.00;;;29.30;99.90;;;;;;5050169;28;20037;-62
2023/09/10 09:17:38;;;;;;;11.93;6.10;;;29.50;99.90;;;;;;5049110;28;20481;-61
2023/09/10 09:20:10;;;;;;;11.35;6.47;;;29.70;99.90;;;;;;5049127;28;20458;-62
2023/09/10 09:22:40;;;;;;;10.10;5.93;;;30.00;99.90;;;;;;5049694;28;20094;-61
2023/09/10 09:25:07;;;;;;;9.90;6.43;;;30.20;99.90;;;;;;5049329;28;20045;-62
2023/09/10 09:27:34;;;;;;;12.15;6.03;;;30.40;99.90;;;;;;5048490;28;20045;-62
2023/09/10 09:30:05;;;;;;;9.57;5.18;;;30.60;99.90;;;;;;5047959;28;20570;-62
2023/09/10 09:32:36;;;;;;;9.23;6.05;;;30.80;99.90;;;;;;5049019;28;20049;-62
2023/09/10 09:35:03;;;;;;;9.43;5.30;;;30.90;99.90;;;;;;5049123;28;20060;-62
2023/09/10 09:37:32;;;;;;;8.02;5.70;;;31.00;99.90;;;;;;5049500;28;20116;-62
2023/09/10 09:40:09;;;;;;;9.50;5.88;;;31.20;99.90;;;;;;5048737;28;20269;-62
2023/09/10 09:42:36;;;;;;;9.95;4.88;;;31.50;99.90;;;;;;5059132;28;20059;-62
2023/09/10 09:45:03;;;;;;;7.07;5.07;;;31.70;99.90;;;;;;5069651;28;20047;-61
2023/09/10 09:47:30;;;;;;;7.32;4.75;;;31.70;99.90;;;;;;5069501;28;20090;-62
2023/09/10 09:49:57;;;;;;;9.77;5.38;;;31.80;99.90;;;;;;5049264;28;20114;-62
2023/09/10 09:52:24;;;;;;;8.25;5.68;;;31.70;99.90;;;;;;5050760;28;20040;-62
2023/09/10 09:54:50;;;;;;;7.78;5.03;;;31.70;99.90;;;;;;5049283;28;20111;-62
2023/09/10 09:57:16;;;;;;;8.65;5.20;;;31.80;99.90;;;;;;5049882;28;20041;-62
2023/09/10 09:59:43;;;;;;;7.40;4.40;;;31.80;99.90;;;;;;5048340;28;20484;-62
2023/09/10 10:02:14;;;;;;;8.00;4.85;;;31.90;99.90;;;;;;5047375;28;20048;-62
2023/09/10 10:04:43;;;;;;;6.57;4.45;;;32.10;99.90;;;;;;5048063;28;20527;-62
2023/09/10 10:07:11;;;;;;;8.43;4.47;;;32.30;99.90;;;;;;5050211;28;20052;-63
2023/09/10 10:09:38;;;;;;;9.13;5.22;;;32.40;99.90;;;;;;5049190;28;20396;-62
2023/09/10 10:12:05;;;;;;;7.63;4.63;;;32.50;99.90;;;;;;5045355;28;20036;-62
2023/09/10 10:14:32;;;;;;;7.53;4.35;;;32.50;99.90;;;;;;5044280;28;20123;-62
2023/09/10 10:17:03;;;;;;;11.63;4.57;;;32.60;99.90;;;;;;5047219;28;20099;-62
2023/09/10 10:19:31;;;;;;;5.80;4.30;;;32.60;99.50;;;;;;5048164;28;20055;-62
2023/09/10 10:21:57;;;;;;;8.07;4.78;;;32.70;99.00;;;;;;5047076;28;20124;-62
2023/09/10 10:24:24;;;;;;;6.32;4.53;;;32.70;98.30;;;;;;5044921;28;20493;-62
2023/09/10 10:26:51;;;;;;;5.78;4.05;;;32.60;97.80;;;;;;5040706;28;20039;-62
2023/09/10 10:29:22;;;;;;;9.00;5.07;;;32.60;97.20;;;;;;5043780;28;20123;-62
2023/09/10 10:32:18;;;;;;;7.90;4.43;;;32.50;96.80;;;;;;5040425;28;20053;-62
2023/09/10 10:34:52;;;;;;;5.90;3.90;;;32.50;96.30;;;;;;5045472;28;20040;-62
2023/09/10 10:37:27;;;;;;;6.28;3.95;;;32.60;96.70;;;;;;5048231;28;20032;-62
2023/09/10 10:40:12;;;;;;;6.97;3.80;;;32.70;96.20;;;;;;5053033;28;20622;-62
2023/09/10 10:42:58;;;;;;;6.15;3.67;;;32.50;96.00;;;;;;5043545;28;20065;-62
2023/09/10 10:45:25;;;;;;;5.60;3.40;;;32.60;95.60;;;;;;5042464;28;20068;-62
2023/09/10 10:47:52;;;;;;;6.75;4.10;;;32.60;96.00;;;;;;5047943;28;20112;-62
2023/09/10 10:50:30;;;;;;;4.60;3.42;;;32.70;95.70;;;;;;5048467;28;20055;-62
2023/09/10 10:53:04;;;;;;;;;;;32.50;94.80;;;;;;5047304;28;20043;-61
2023/09/10 10:55:33;;;;;;;6.93;3.78;;;32.40;95.10;;;;;;5048759;28;19916;-62
2023/09/10 10:58:00;;;;;;;5.80;3.20;;;32.30;95.20;;;;;;5048036;28;20112;-62
2023/09/10 11:00:26;;;;;;;5.30;3.08;;;32.20;95.20;;;;;;5046715;28;20036;-61
2023/09/10 11:03:20;;;;;;;4.60;3.20;;;32.20;95.00;;;;;;5043925;28;20100;-61
2023/09/10 11:05:52;;;;;;;7.43;3.78;;;32.20;94.00;;;;;;5040729;28;20054;-62
2023/09/10 11:08:32;;;;;;;5.30;3.00;;;32.20;94.30;;;;;;5048785;28;20040;-62
2023/09/10 11:10:59;;;;;;;5.53;3.10;;;31.90;94.10;;;;;;5049032;28;20048;-62
2023/09/10 11:13:25;;;;;;;7.57;3.47;;;31.80;94.40;;;;;;5043251;28;20055;-62
2023/09/10 11:16:06;;;;;;;3.97;2.95;;;31.70;94.40;;;;;;5044876;28;20028;-62
2023/09/10 11:18:37;;;;;;;6.18;3.30;;;31.70;94.50;;;;;;5043075;28;20090;-62
2023/09/10 11:21:08;;;;;;;10.80;3.10;;;31.70;94.60;;;;;;5042563;28;20043;-61
2023/09/10 11:23:35;;;;;;;7.03;3.08;;;31.80;94.80;;;;;;5041020;28;20060;-61
2023/09/10 11:26:13;;;;;;;6.82;3.92;;;31.70;94.60;;;;;;5045762;28;20045;-62
2023/09/10 11:28:50;;;;;;;4.13;3.00;;;31.60;94.70;;;;;;5048426;28;20033;-61
2023/09/10 11:31:39;;;;;;;7.18;3.63;;;31.50;94.30;;;;;;5045390;28;20490;-62
2023/09/10 11:34:17;;;;;;;4.53;3.05;;;31.30;94.00;;;;;;5043541;28;20102;-61
2023/09/10 11:36:45;;;;;;;10.45;3.63;;;31.30;93.30;;;;;;5044742;28;20083;-61
2023/09/10 11:39:19;;;;;;;3.95;2.55;;;31.20;93.70;;;;;;5046937;28;20086;-62
2023/09/10 11:41:49;;;;;;;7.43;3.45;;;31.20;93.80;;;;;;5039994;28;20107;-62
2023/09/10 11:44:15;;;;;;;5.30;2.90;;;31.20;94.00;;;;;;5044303;28;21696;-61
2023/09/10 11:46:41;;;;;;;9.50;2.95;;;31.10;93.80;;;;;;5044889;28;20032;-61
2023/09/10 11:49:07;;;;;;;7.53;3.97;;;31.00;93.90;;;;;;5044808;28;20041;-61
2023/09/10 11:51:44;;;;;;;4.57;2.70;;;31.10;94.30;;;;;;5045316;28;20052;-61
2023/09/10 11:54:16;;;;;;;8.57;3.28;;;31.10;93.70;;;;;;5047437;28;20048;-61
2023/09/10 11:56:53;;;;;;;8.85;3.00;;;30.90;93.30;;;;;;5047541;28;20389;-61
2023/09/10 11:59:23;;;;;;;5.65;3.13;;;30.70;93.50;;;;;;5050809;28;20477;-61
2023/09/10 12:01:50;;;;;;;8.13;2.95;;;30.50;93.60;;;;;;5049705;28;20068;-61
2023/09/10 12:04:16;;;;;;;4.45;2.42;;;30.40;94.00;;;;;;5047421;28;20045;-62
2023/09/10 12:06:43;;;;;;;5.88;2.85;;;30.40;94.00;;;;;;5045863;28;20515;-61
2023/09/10 12:09:10;;;;;;;8.38;3.70;;;30.50;94.10;;;;;;5052137;28;20044;-61
2023/09/10 12:11:38;;;;;;;4.97;3.13;;;30.50;94.30;;;;;;5032366;28;20507;-61
2023/09/10 12:14:04;;;;;;;10.15;2.63;;;30.50;94.00;;;;;;5047801;28;20509;-61
2023/09/10 12:16:31;;;;;;;6.40;2.45;;;30.60;93.90;;;;;;5048622;28;20142;-62
2023/09/10 12:18:56;;;;;;;7.82;3.40;;;30.50;93.60;;;;;;5046906;28;20068;-62
2023/09/10 12:21:23;;;;;;;4.57;2.72;;;30.30;93.80;;;;;;5047011;28;20080;-62
2023/09/10 12:23:52;;;;;;;8.95;3.28;;;30.20;94.00;;;;;;5042745;28;20155;-62
2023/09/10 12:26:21;;;;;;;5.38;3.05;;;30.20;93.90;;;;;;5047839;28;20392;-62
2023/09/10 12:28:50;;;;;;;6.13;3.10;;;30.00;93.80;;;;;;5052516;28;20064;-62
2023/09/10 12:31:15;;;;;;;6.50;2.92;;;30.00;94.00;;;;;;5012444;28;20492;-61
2023/09/10 12:33:41;;;;;;;10.75;3.53;;;30.00;94.30;;;;;;5033244;28;20063;-62
2023/09/10 12:36:07;;;;;;;8.80;3.45;;;29.90;94.10;;;;;;4969600;28;20132;-62
2023/09/10 12:38:33;;;;;;;6.57;2.80;;;29.80;94.20;;;;;;5021210;28;20119;-61
2023/09/10 12:40:59;;;;;;;8.02;3.10;;;29.80;94.40;;;;;;5053654;28;20053;-61
2023/09/10 12:43:25;;;;;;;5.32;3.10;;;29.80;94.40;;;;;;5021937;28;20040;-62